Terminal Aerodrome Forecast
Issued by NWS

Home | Current Version | Previous Version | Text Only | Print | Product List | Glossary On
Versions: 1 2 3 4 5 6 7 8 9 10 11 12 13 14 15 16 17 18 19 20 21 22 23 24 25 26 27 28 29 30 31 32 33 34 35 36 37 38 39 40 41 42
000
FTUS45 KBOU 041736
TAFBJC
TAF
KBJC 041736Z 0418/0518 05006KT P6SM FEW090 FEW120
     FM042100 07008KT P6SM VCTS SCT090CB BKN140
      TEMPO 0421/0424 VRB18G30KT
     FM050100 31007KT P6SM SCT090 BKN140
     FM050400 27007KT P6SM FEW090 SCT140
     FM051100 00000KT P6SM SCT140 BKN200=

USA.gov is the U.S. government's official web portal to all federal, state and local government web resources and services.